Time;durP1;ratioP1;P1;durP2;ratioP2;P2;SDS_P1;SDS_P2;PMS_P1;PMS_P2;Temp;Humidity;BMP_temperature;BMP_pressure;BME280_temperature;BME280_humidity;BME280_pressure;Samples;Min_cycle;Max_cycle;Signal;HPM_P1;HPM_P2
2022/08/24 00:00:27;;;;;;;0.00;0.00;;;;;;;19.00;100.00;98207.31;5066353;28;20564;-79
2022/08/24 00:02:54;;;;;;;0.00;0.00;;;;;;;18.97;100.00;98213.78;5066427;28;20032;-81
2022/08/24 00:05:22;;;;;;;0.00;0.00;;;;;;;18.95;100.00;98207.78;5069512;28;20036;-80
2022/08/24 00:07:50;;;;;;;0.00;0.00;;;;;;;18.92;100.00;98210.72;5068999;28;20033;-79
2022/08/24 00:10:21;;;;;;;0.00;0.00;;;;;;;18.88;100.00;98213.81;5068662;28;20059;-79
2022/08/24 00:12:50;;;;;;;0.00;0.00;;;;;;;18.91;100.00;98205.53;5067188;28;20356;-79
2022/08/24 00:15:18;;;;;;;0.00;0.00;;;;;;;18.93;100.00;98201.72;5067836;28;20036;-80
2022/08/24 00:17:45;;;;;;;0.00;0.00;;;;;;;18.95;100.00;98205.09;5066950;28;20123;-79
2022/08/24 00:20:13;;;;;;;0.00;0.00;;;;;;;18.97;100.00;98199.59;5065596;28;20041;-79
2022/08/24 00:22:41;;;;;;;0.00;0.00;;;;;;;18.99;100.00;98194.97;5064402;28;20495;-85
2022/08/24 00:25:12;;;;;;;0.00;0.00;;;;;;;19.03;100.00;98193.69;5063375;28;20040;-81
2022/08/24 00:27:43;;;;;;;0.00;0.00;;;;;;;19.01;100.00;98191.16;5061166;28;20044;-79
2022/08/24 00:30:16;;;;;;;0.00;0.00;;;;;;;18.99;100.00;98194.97;5069106;28;20041;-83
2022/08/24 00:32:45;;;;;;;0.00;0.00;;;;;;;18.99;100.00;98190.47;5064103;28;20162;-81
2022/08/24 00:35:13;;;;;;;0.00;0.00;;;;;;;19.04;100.00;98190.88;5063109;28;20036;-79
2022/08/24 00:37:41;;;;;;;0.00;0.00;;;;;;;19.12;100.00;98185.63;5067437;28;20037;-80
2022/08/24 00:40:12;;;;;;;0.00;0.00;;;;;;;19.11;100.00;98191.97;5064027;28;20052;-85
2022/08/24 00:42:41;;;;;;;0.00;0.00;;;;;;;19.14;100.00;98194.34;5065617;28;20045;-85
2022/08/24 00:45:11;;;;;;;0.00;0.00;;;;;;;19.22;100.00;98201.59;5068339;28;20054;-79
2022/08/24 00:47:45;;;;;;;0.00;0.00;;;;;;;19.25;100.00;98203.97;5065959;28;20037;-81
2022/08/24 00:50:21;;;;;;;0.00;0.00;;;;;;;19.29;100.00;98197.34;5067494;28;20457;-80
2022/08/24 00:52:56;;;;;;;0.00;0.00;;;;;;;19.30;100.00;98205.19;5064743;28;20047;-81
2022/08/24 00:55:29;;;;;;;0.00;0.00;;;;;;;19.24;100.00;98208.44;5064967;28;20036;-80
2022/08/24 00:58:02;;;;;;;0.00;0.00;;;;;;;19.21;100.00;98216.78;5064008;28;20044;-80
2022/08/24 01:00:35;;;;;;;0.00;0.00;;;;;;;19.21;100.00;98206.09;5063339;28;20110;-80
2022/08/24 01:03:06;;;;;;;0.00;0.00;;;;;;;19.22;100.00;98209.59;5063206;28;20056;-79
2022/08/24 01:05:36;;;;;;;0.00;0.00;;;;;;;19.21;100.00;98213.25;5066078;28;20047;-84
2022/08/24 01:08:07;;;;;;;0.00;0.00;;;;;;;19.16;100.00;98219.03;5061002;28;20048;-84
2022/08/24 01:10:39;;;;;;;0.00;0.00;;;;;;;19.12;100.00;98222.97;5067647;28;20045;-82
2022/08/24 01:13:10;;;;;;;0.00;0.00;;;;;;;19.16;100.00;98232.38;5064951;28;20526;-79
2022/08/24 01:15:41;;;;;;;0.00;0.00;;;;;;;19.16;100.00;98235.03;5066683;28;20075;-83
2022/08/24 01:21:06;;;;;;;0.00;0.00;;;;;;;19.12;100.00;98238.97;5061690;28;20067;-85
2022/08/24 01:23:39;;;;;;;0.00;0.00;;;;;;;19.20;100.00;98241.75;5060054;28;20028;-81
2022/08/24 01:26:10;;;;;;;0.00;0.00;;;;;;;19.25;100.00;98244.84;5066044;28;20048;-87
2022/08/24 01:28:39;;;;;;;0.00;0.00;;;;;;;19.29;100.00;98240.88;5066162;28;20058;-82
2022/08/24 01:31:07;;;;;;;0.00;0.00;;;;;;;19.30;100.00;98242.56;5065161;28;20495;-81
2022/08/24 01:33:35;;;;;;;0.00;0.00;;;;;;;19.30;100.00;98233.69;5065231;28;20094;-81
2022/08/24 01:36:09;;;;;;;0.00;0.00;;;;;;;19.33;100.00;98242.28;5067759;28;20126;-86
2022/08/24 01:38:38;;;;;;;0.00;0.00;;;;;;;19.33;100.00;98236.94;5065749;28;20040;-81
2022/08/24 01:41:06;;;;;;;0.00;0.00;;;;;;;19.29;100.00;98240.03;5066017;28;20036;-86
2022/08/24 01:43:33;;;;;;;0.00;0.00;;;;;;;19.26;100.00;98233.16;5064210;28;20051;-85
2022/08/24 01:46:01;;;;;;;0.00;0.00;;;;;;;19.26;100.00;98249.19;5062347;28;20138;-81
2022/08/24 01:48:29;;;;;;;0.00;0.00;;;;;;;19.25;100.00;98250.19;5066454;28;20119;-81
2022/08/24 01:50:57;;;;;;;0.00;0.00;;;;;;;19.27;100.00;98244.69;5065609;28;20111;-80
2022/08/24 01:53:24;;;;;;;0.00;0.00;;;;;;;19.28;100.00;98239.22;5063962;28;20057;-81
2022/08/24 01:55:53;;;;;;;0.00;0.00;;;;;;;19.26;100.00;98243.00;5063830;28;20499;-80
2022/08/24 01:58:21;;;;;;;0.00;0.00;;;;;;;19.24;100.00;98240.47;5067865;28;20119;-81
2022/08/24 02:00:49;;;;;;;0.00;0.00;;;;;;;19.24;100.00;98243.13;5069456;28;20071;-80
2022/08/24 02:03:16;;;;;;;0.00;0.00;;;;;;;19.17;100.00;98246.56;5068619;28;20081;-80
2022/08/24 02:05:50;;;;;;;0.00;0.00;;;;;;;19.09;100.00;98236.59;5067672;28;20035;-80
2022/08/24 02:08:18;;;;;;;0.00;0.00;;;;;;;19.06;100.00;98241.41;5065655;28;20593;-80
2022/08/24 02:10:46;;;;;;;0.00;0.00;;;;;;;19.04;100.00;98238.88;5068408;28;20036;-82
2022/08/24 02:13:15;;;;;;;0.00;0.00;;;;;;;19.05;100.00;98248.56;5067867;28;20038;-80
2022/08/24 02:15:44;;;;;;;0.00;0.00;;;;;;;19.14;100.00;98247.69;5065400;28;20111;-83
2022/08/24 02:18:12;;;;;;;0.00;0.00;;;;;;;19.27;100.00;98250.03;5068260;28;20048;-83
2022/08/24 02:20:40;;;;;;;0.00;0.00;;;;;;;19.30;100.00;98241.72;5069273;28;20040;-80
2022/08/24 02:23:07;;;;;;;0.00;0.00;;;;;;;19.22;100.00;98246.94;5070793;28;20098;-83
2022/08/24 02:25:35;;;;;;;0.00;0.00;;;;;;;19.15;100.00;98254.69;5071519;28;20512;-80
2022/08/24 02:28:04;;;;;;;0.00;0.00;;;;;;;19.13;100.00;98251.31;5073170;28;20489;-82
2022/08/24 02:30:33;;;;;;;0.00;0.00;;;;;;;19.18;100.00;98243.75;5072485;28;20056;-80
2022/08/24 02:33:00;;;;;;;0.00;0.00;;;;;;;19.19;100.00;98247.22;5068211;28;20068;-81
2022/08/24 02:35:29;;;;;;;0.00;0.00;;;;;;;19.18;100.00;98253.56;5073082;28;20032;-81
2022/08/24 02:37:58;;;;;;;0.00;0.00;;;;;;;19.24;100.00;98248.47;5072167;28;20095;-80
2022/08/24 02:40:28;;;;;;;0.00;0.00;;;;;;;19.23;100.00;98248.66;5057419;28;20053;-85
2022/08/24 02:42:56;;;;;;;0.00;0.00;;;;;;;19.23;100.00;98259.31;5060271;28;20483;-81
2022/08/24 02:45:23;;;;;;;0.00;0.00;;;;;;;19.24;100.00;98255.66;5068865;28;20041;-81
2022/08/24 02:47:53;;;;;;;0.00;0.00;;;;;;;19.24;100.00;98255.66;5062385;28;20047;-84
2022/08/24 02:50:24;;;;;;;0.00;0.00;;;;;;;19.26;100.00;98251.84;5063367;28;20655;-83
2022/08/24 02:52:53;;;;;;;0.00;0.00;;;;;;;19.25;100.00;98255.50;5069314;28;20068;-83
2022/08/24 02:55:20;;;;;;;0.00;0.00;;;;;;;19.22;100.00;98253.13;5073616;28;20044;-85
2022/08/24 02:57:51;;;;;;;0.00;0.00;;;;;;;19.20;100.00;98255.09;5064396;28;20040;-80
2022/08/24 03:00:21;;;;;;;0.00;0.00;;;;;;;19.17;100.00;98260.75;5063078;28;20040;-80
2022/08/24 03:02:54;;;;;;;0.00;0.00;;;;;;;19.16;100.00;98261.72;5071102;28;20050;-80
2022/08/24 03:05:24;;;;;;;0.00;0.00;;;;;;;19.11;100.00;98255.97;5062273;28;20060;-80
2022/08/24 03:07:52;;;;;;;0.00;0.00;;;;;;;19.09;100.00;98260.59;5071605;28;20047;-80
2022/08/24 03:10:20;;;;;;;0.00;0.00;;;;;;;19.18;100.00;98266.91;5071944;28;20499;-81
2022/08/24 03:12:49;;;;;;;0.00;0.00;;;;;;;19.32;100.00;98261.94;5070645;28;20504;-81
2022/08/24 03:15:21;;;;;;;0.00;0.00;;;;;;;19.40;100.00;98262.03;5071863;28;20044;-80
2022/08/24 03:17:48;;;;;;;0.00;0.00;;;;;;;19.35;100.00;98256.28;5073377;28;20048;-80
2022/08/24 03:20:21;;;;;;;0.00;0.00;;;;;;;19.30;100.00;98266.56;5061603;28;20072;-85
2022/08/24 03:22:49;;;;;;;0.00;0.00;;;;;;;19.29;100.00;98262.22;5068768;28;20510;-84
2022/08/24 03:25:18;;;;;;;0.00;0.00;;;;;;;19.26;100.00;98272.34;5071296;28;20044;-84
2022/08/24 03:27:46;;;;;;;0.00;0.00;;;;;;;19.17;100.00;98273.22;5072056;28;20040;-80
2022/08/24 03:30:16;;;;;;;0.00;0.00;;;;;;;19.05;100.00;98259.22;5072048;28;20037;-80
2022/08/24 03:32:48;;;;;;;0.00;0.00;;;;;;;18.98;100.00;98263.44;5070252;28;20136;-83
2022/08/24 03:35:20;;;;;;;0.00;0.00;;;;;;;18.88;100.00;98260.00;5071352;28;20428;-86
2022/08/24 03:37:48;;;;;;;0.00;0.00;;;;;;;18.77;100.00;98256.63;5075531;28;20048;-80
2022/08/24 03:40:16;;;;;;;0.00;0.00;;;;;;;18.74;100.00;98263.09;5070302;28;20057;-83
2022/08/24 03:42:44;;;;;;;0.00;0.00;;;;;;;18.82;100.00;98265.88;5068704;28;20075;-85
2022/08/24 03:45:12;;;;;;;0.00;0.00;;;;;;;18.84;100.00;98266.59;5062395;28;20120;-82
2022/08/24 03:47:39;;;;;;;0.00;0.00;;;;;;;18.84;100.00;98271.94;5064905;28;20051;-81
2022/08/24 03:50:08;;;;;;;0.00;0.00;;;;;;;18.70;100.00;98274.19;5069522;28;20083;-81
2022/08/24 03:52:37;;;;;;;0.00;0.00;;;;;;;18.54;100.00;98272.06;5063106;28;20494;-82
2022/08/24 03:55:07;;;;;;;0.00;0.00;;;;;;;18.51;100.00;98279.50;5066607;28;20436;-82
2022/08/24 03:57:35;;;;;;;0.00;0.00;;;;;;;18.55;100.00;98283.56;5064192;28;20076;-82
2022/08/24 04:00:06;;;;;;;0.00;0.00;;;;;;;18.63;100.00;98279.25;5068533;28;20483;-83
2022/08/24 04:02:43;;;;;;;0.00;0.00;;;;;;;18.65;100.00;98274.59;5070245;28;20045;-85
2022/08/24 04:05:15;;;;;;;0.00;0.00;;;;;;;18.64;100.00;98277.44;5066100;28;20045;-81
2022/08/24 04:07:44;;;;;;;0.00;0.00;;;;;;;18.57;100.00;98274.44;5072136;28;20053;-83
2022/08/24 04:10:12;;;;;;;0.00;0.00;;;;;;;18.54;100.00;98268.56;5063744;28;20415;-82
2022/08/24 04:12:40;;;;;;;0.00;0.00;;;;;;;18.54;100.00;98272.06;5068912;28;20455;-83
2022/08/24 04:15:09;;;;;;;0.00;0.00;;;;;;;18.54;100.00;98272.06;5071553;28;20064;-81
2022/08/24 04:30:26;;;;;;;0.00;0.00;;;;;;;19.51;100.00;98282.38;5107408;27;20380;-85
2022/08/24 04:33:14;;;;;;;0.00;0.00;;;;;;;19.47;100.00;98286.34;5105303;28;20031;-84
2022/08/24 04:35:47;;;;;;;0.00;0.00;;;;;;;19.50;100.00;98280.69;5102669;28;20052;-86
2022/08/24 04:38:16;;;;;;;0.00;0.00;;;;;;;19.35;100.00;98285.63;5105044;28;20036;-80
2022/08/24 04:40:51;;;;;;;0.00;0.00;;;;;;;19.32;100.00;98288.63;5105038;28;20406;-85
2022/08/24 04:43:19;;;;;;;0.00;0.00;;;;;;;19.36;100.00;98290.00;5105663;28;20043;-84
2022/08/24 04:45:49;;;;;;;0.00;0.00;;;;;;;19.51;100.00;98285.03;5105208;28;20036;-81
2022/08/24 04:48:17;;;;;;;0.00;0.00;;;;;;;19.39;100.00;98289.72;5102737;28;20554;-81
2022/08/24 04:50:45;;;;;;;0.00;0.00;;;;;;;19.27;100.00;98285.53;5103152;28;20110;-83
2022/08/24 04:53:13;;;;;;;0.00;0.00;;;;;;;19.33;100.00;98290.28;5104652;28;20036;-84
2022/08/24 04:55:47;;;;;;;0.00;0.00;;;;;;;19.42;100.00;98286.75;5105537;28;20040;-81
2022/08/24 04:58:18;;;;;;;0.00;0.00;;;;;;;19.41;100.00;98287.75;5123418;28;20036;-80
2022/08/24 05:00:46;;;;;;;0.00;0.00;;;;;;;19.26;100.00;98291.00;5109752;28;20062;-80
2022/08/24 05:03:16;;;;;;;0.00;0.00;;;;;;;19.20;100.00;98286.28;5107961;28;20046;-83
2022/08/24 05:05:46;;;;;;;0.00;0.00;;;;;;;19.17;100.00;98289.22;5100355;28;20048;-85
2022/08/24 05:08:14;;;;;;;0.00;0.00;;;;;;;19.22;100.00;98286.97;5098538;28;20050;-85
2022/08/24 05:10:45;;;;;;;0.00;0.00;;;;;;;19.21;100.00;98287.94;5103556;28;20387;-84
2022/08/24 05:13:13;;;;;;;0.00;0.00;;;;;;;19.22;100.00;98293.16;5103889;28;20560;-83
2022/08/24 05:15:42;;;;;;;0.00;0.00;;;;;;;19.16;100.00;98288.38;5106116;28;20044;-80
2022/08/24 05:18:10;;;;;;;0.00;0.00;;;;;;;19.11;100.00;98296.00;5106441;28;20044;-81
2022/08/24 05:20:42;;;;;;;0.00;0.00;;;;;;;19.15;100.00;98285.84;5099926;28;20033;-84
2022/08/24 05:23:10;;;;;;;0.00;0.00;;;;;;;19.16;100.00;98290.22;5098405;28;20497;-81
2022/08/24 05:25:38;;;;;;;0.00;0.00;;;;;;;19.13;100.00;98280.66;5098325;28;20044;-81
2022/08/24 05:28:06;;;;;;;0.00;0.00;;;;;;;19.20;100.00;98279.09;5102309;28;20032;-81
2022/08/24 05:30:34;;;;;;;0.00;0.00;;;;;;;19.28;100.00;98286.38;5092930;28;20047;-82
2022/08/24 05:33:02;;;;;;;0.00;0.00;;;;;;;19.31;100.00;98286.09;5079063;28;20045;-82
2022/08/24 05:35:30;;;;;;;0.00;0.00;;;;;;;19.33;100.00;98295.63;5085761;28;20117;-83
2022/08/24 05:37:58;;;;;;;0.00;0.00;;;;;;;19.36;100.00;98295.34;5084342;28;20105;-82
2022/08/24 05:40:33;;;;;;;0.00;0.00;;;;;;;19.35;100.00;98290.97;5080572;28;20029;-82
2022/08/24 05:43:02;;;;;;;0.00;0.00;;;;;;;19.33;100.00;98294.78;5087502;28;20038;-82
2022/08/24 05:45:30;;;;;;;0.00;0.00;;;;;;;19.41;100.00;98302.88;5083955;28;20040;-84
2022/08/24 05:47:58;;;;;;;0.00;0.00;;;;;;;19.55;100.00;98305.97;5088706;28;20044;-82
2022/08/24 05:50:53;;;;;;;0.00;0.00;;;;;;;19.65;100.00;98308.59;5092911;28;20071;-80
2022/08/24 05:53:21;;;;;;;0.00;0.00;;;;;;;19.59;100.00;98302.00;5091679;28;20398;-82
2022/08/24 05:55:49;;;;;;;0.00;0.00;;;;;;;19.71;100.00;98300.81;5093272;28;20103;-84
2022/08/24 05:58:18;;;;;;;0.00;0.00;;;;;;;19.89;100.00;98306.19;5087870;28;20032;-81
2022/08/24 06:00:45;;;;;;;0.00;0.00;;;;;;;19.94;100.00;98307.41;5090364;28;20041;-81
2022/08/24 06:03:14;;;;;;;0.00;0.00;;;;;;;20.03;100.00;98303.00;5091183;28;20044;-81
2022/08/24 06:05:44;;;;;;;0.00;0.00;;;;;;;20.10;100.00;98296.94;5091794;28;20028;-82
2022/08/24 06:08:11;;;;;;;0.00;0.00;;;;;;;20.05;100.00;98304.53;5090367;28;20047;-83
2022/08/24 06:10:42;;;;;;;0.00;0.00;;;;;;;20.08;100.00;98304.25;5091730;28;20085;-81
2022/08/24 06:13:11;;;;;;;0.00;0.00;;;;;;;20.05;100.00;98309.06;5092542;28;20036;-84
2022/08/24 06:15:40;;;;;;;0.00;0.00;;;;;;;20.13;100.00;98304.66;5091979;28;20053;-82
2022/08/24 06:18:09;;;;;;;0.00;0.00;;;;;;;20.35;100.00;98301.56;5086739;28;20031;-83
2022/08/24 06:20:41;;;;;;;0.00;0.00;;;;;;;20.50;100.00;98297.34;5091617;28;20044;-81
2022/08/24 06:23:09;;;;;;;0.00;0.00;;;;;;;20.64;100.00;98299.44;5093265;28;20059;-83
2022/08/24 06:28:25;;;;;;;0.00;0.00;;;;;;;20.41;100.00;98306.28;5019267;28;20042;-82
2022/08/24 06:31:02;;;;;;;0.00;0.00;;;;;;;20.39;100.00;98318.97;5011306;28;20128;-83
2022/08/24 06:33:30;;;;;;;0.00;0.00;;;;;;;20.35;100.00;98317.59;5010994;28;20046;-81
2022/08/24 06:35:59;;;;;;;0.00;0.00;;;;;;;20.37;100.00;98330.81;5012676;28;20042;-82
2022/08/24 06:38:26;;;;;;;0.00;0.00;;;;;;;20.36;100.00;98323.75;5013624;28;20471;-82
2022/08/24 06:40:56;;;;;;;0.00;0.00;;;;;;;20.41;100.00;98316.97;5010668;28;20137;-81
2022/08/24 06:43:24;;;;;;;0.00;0.00;;;;;;;20.55;100.00;98329.78;5001256;28;20049;-82
2022/08/24 06:45:54;;;;;;;0.00;0.00;;;;;;;20.64;100.00;98328.88;5013849;28;20057;-85
2022/08/24 06:48:29;;;;;;;0.00;0.00;;;;;;;20.63;100.00;98329.88;5013110;28;20049;-82
2022/08/24 06:50:58;;;;;;;0.00;0.00;;;;;;;20.64;100.00;98323.50;5014857;28;20077;-84
2022/08/24 06:53:26;;;;;;;0.00;0.00;;;;;;;20.66;100.00;98328.72;5013356;28;20535;-83
2022/08/24 06:55:58;;;;;;;0.00;0.00;;;;;;;20.77;100.00;98333.81;5015164;28;20139;-82
2022/08/24 06:58:28;;;;;;;0.00;0.00;;;;;;;20.70;100.00;98328.25;5011550;28;20104;-83
2022/08/24 07:00:56;;;;;;;0.00;0.00;;;;;;;20.66;100.00;98331.38;5012741;28;20042;-83
2022/08/24 07:03:25;;;;;;;0.00;0.00;;;;;;;20.60;100.00;98335.50;5030682;28;20080;-82
2022/08/24 07:06:05;;;;;;;0.00;0.00;;;;;;;20.62;100.00;98336.22;5063914;28;20109;-80
2022/08/24 07:08:38;;;;;;;0.00;0.00;;;;;;;20.77;100.00;98333.00;5087767;28;20040;-80
2022/08/24 07:11:10;;;;;;;0.00;0.00;;;;;;;20.98;100.00;98341.53;5090755;28;20050;-81
2022/08/24 07:13:38;;;;;;;0.00;0.00;;;;;;;21.00;100.00;98337.75;5089090;28;20436;-80
2022/08/24 07:16:06;;;;;;;0.00;0.00;;;;;;;20.88;100.00;98333.56;5091933;28;20028;-84
2022/08/24 07:18:37;;;;;;;0.00;0.00;;;;;;;20.92;100.00;98343.00;5091384;28;20502;-85
2022/08/24 07:21:05;;;;;;;0.00;0.00;;;;;;;21.01;100.00;98339.41;5069647;28;20048;-82
2022/08/24 07:23:41;;;;;;;0.00;0.00;;;;;;;21.05;100.00;98332.75;5088709;28;20062;-83
2022/08/24 07:26:13;;;;;;;0.00;0.00;;;;;;;21.30;100.00;98341.78;5088415;28;20056;-80
2022/08/24 07:28:41;;;;;;;0.00;0.00;;;;;;;21.54;100.00;98337.41;5086476;28;20059;-81
2022/08/24 07:31:12;;;;;;;0.00;0.00;;;;;;;21.79;100.00;98341.91;5090810;28;20657;-85
2022/08/24 07:33:47;;;;;;;0.00;0.00;;;;;;;21.82;100.00;98341.59;5088585;28;20055;-80
2022/08/24 07:36:16;;;;;;;0.00;0.00;;;;;;;21.77;100.00;98340.41;5079689;28;20036;-83
2022/08/24 07:38:45;;;;;;;0.00;0.00;;;;;;;21.91;100.00;98331.75;5090826;28;20474;-82
2022/08/24 07:41:16;;;;;;;0.00;0.00;;;;;;;21.96;100.00;98332.09;5090561;28;20044;-81
2022/08/24 07:43:46;;;;;;;0.00;0.00;;;;;;;21.92;100.00;98333.41;5083636;28;20068;-79
2022/08/24 07:46:14;;;;;;;0.00;0.00;;;;;;;21.93;100.00;98338.63;5084844;28;20143;-82
2022/08/24 07:48:42;;;;;;;0.00;0.00;;;;;;;21.98;100.00;98338.16;5074718;28;20490;-84
2022/08/24 07:51:12;;;;;;;0.00;0.00;;;;;;;22.15;100.00;98337.19;5086820;28;20043;-84
2022/08/24 07:53:42;;;;;;;0.00;0.00;;;;;;;22.18;100.00;98339.53;5085831;28;20046;-82
2022/08/24 07:56:13;;;;;;;0.00;0.00;;;;;;;22.40;100.00;98338.94;5087178;28;20089;-84
2022/08/24 07:58:46;;;;;;;0.00;0.00;;;;;;;22.68;100.00;98338.47;5089588;28;20123;-82
2022/08/24 08:01:14;;;;;;;0.00;0.00;;;;;;;23.02;100.00;98336.50;5089501;28;20164;-82
2022/08/24 08:03:42;;;;;;;0.00;0.00;;;;;;;23.12;98.95;98339.84;5090436;28;20472;-83
2022/08/24 08:06:10;;;;;;;0.00;0.00;;;;;;;23.05;96.60;98344.22;5085996;28;20032;-83
2022/08/24 08:08:40;;;;;;;0.00;0.00;;;;;;;22.99;97.87;98346.72;5087532;28;20134;-84
2022/08/24 08:11:09;;;;;;;0.00;0.00;;;;;;;23.14;98.93;98356.63;5084738;28;20397;-82
2022/08/24 08:13:39;;;;;;;0.00;0.00;;;;;;;23.23;96.66;98352.09;5083662;28;20119;-82
2022/08/24 08:16:09;;;;;;;0.00;0.00;;;;;;;23.05;96.20;98356.81;5089179;28;20040;-83
2022/08/24 08:18:37;;;;;;;0.00;0.00;;;;;;;22.86;95.55;98357.94;5086791;28;20464;-78
2022/08/24 08:24:13;;;;;;;0.00;0.00;;;;;;;22.69;96.36;98350.88;5082275;28;20115;-80
2022/08/24 08:24:16;;;;;;;0.00;0.00;;;;;;;22.64;97.06;98357.75;5079286;28;20059;-81
2022/08/24 08:26:50;;;;;;;0.00;0.00;;;;;;;22.98;97.84;98353.09;5089646;28;20510;-80
2022/08/24 08:29:26;;;;;;;0.00;0.00;;;;;;;23.13;96.05;98348.75;5086002;28;20072;-79
2022/08/24 08:31:56;;;;;;;0.00;0.00;;;;;;;23.16;95.21;98351.91;5087098;28;20440;-79
2022/08/24 08:34:24;;;;;;;0.00;0.00;;;;;;;23.11;95.07;98350.75;5091678;28;20036;-79
2022/08/24 08:36:51;;;;;;;0.00;0.00;;;;;;;23.13;95.48;98359.47;5089964;28;20486;-79
2022/08/24 08:39:21;;;;;;;0.00;0.00;;;;;;;23.18;95.17;98349.91;5089631;28;20114;-81
2022/08/24 08:42:13;;;;;;;;;;;;;;;23.28;94.96;98349.72;5088949;28;20044;-80
2022/08/24 08:44:56;;;;;;;0.00;0.00;;;;;;;23.30;94.92;98345.00;5083328;28;19920;-80
2022/08/24 08:47:53;;;;;;;0.00;0.00;;;;;;;23.43;95.21;98361.44;5084348;28;20032;-79
2022/08/24 08:50:30;;;;;;;0.00;0.00;;;;;;;23.65;93.40;98360.75;5087241;28;20048;-79
2022/08/24 08:53:29;;;;;;;0.00;0.00;;;;;;;23.68;93.05;98363.09;5088952;28;20063;-81
2022/08/24 08:56:06;;;;;;;0.00;0.00;;;;;;;23.72;93.52;98359.06;5011392;28;20045;-81
2022/08/24 08:59:00;;;;;;;0.00;0.00;;;;;;;23.91;92.94;98366.72;5010996;28;20081;-80
2022/08/24 09:01:49;;;;;;;0.00;0.00;;;;;;;23.87;92.63;98368.06;5022331;28;20136;-80
2022/08/24 09:04:58;;;;;;;0.00;0.00;;;;;;;24.00;93.16;98375.59;5025649;28;20046;-80
2022/08/24 09:07:43;;;;;;;0.00;0.00;;;;;;;24.00;90.46;98376.41;5015263;28;20057;-80
2022/08/24 09:10:33;;;;;;;0.00;0.00;;;;;;;24.11;92.03;98378.72;5021284;28;20104;-80
2022/08/24 09:13:23;;;;;;;0.00;0.00;;;;;;;24.11;91.13;98378.72;5013742;28;20054;-79
2022/08/24 09:16:06;;;;;;;0.00;0.00;;;;;;;24.19;90.66;98370.63;5013240;28;20099;-80
2022/08/24 09:18:50;;;;;;;0.00;0.00;;;;;;;24.25;90.57;98374.47;5017534;28;20400;-81
2022/08/24 09:21:37;;;;;;;0.00;0.00;;;;;;;24.34;89.81;98363.53;5030738;28;20381;-79
2022/08/24 09:24:24;;;;;;;0.00;0.00;;;;;;;24.47;88.60;98366.47;5014386;28;20037;-82
2022/08/24 09:27:06;;;;;;;0.00;0.00;;;;;;;24.52;87.62;98360.56;5013993;28;20049;-80
2022/08/24 09:29:55;;;;;;;0.00;0.00;;;;;;;24.46;87.81;98356.72;5022054;28;20140;-81
2022/08/24 09:32:36;;;;;;;0.00;0.00;;;;;;;24.33;87.21;98350.25;5034267;28;20127;-80
2022/08/24 09:35:07;;;;;;;0.00;0.00;;;;;;;24.21;88.24;98348.91;5091337;28;20036;-80
2022/08/24 09:37:56;;;;;;;0.00;0.00;;;;;;;24.27;89.42;98343.69;5085477;28;20032;-80
2022/08/24 09:40:36;;;;;;;0.00;0.00;;;;;;;24.35;89.93;98346.38;5085229;28;20036;-81
2022/08/24 09:43:52;;;;;;;0.00;0.00;;;;;;;24.25;89.59;98340.34;5086625;28;20032;-81
2022/08/24 09:47:06;;;;;;;0.00;0.00;;;;;;;24.30;88.27;98347.91;5047805;28;20045;-79
2022/08/24 09:50:10;;;;;;;0.00;0.00;;;;;;;24.29;88.42;98339.00;5053409;28;20045;-79
2022/08/24 09:53:21;;;;;;;0.00;0.00;;;;;;;24.25;91.37;98337.66;4976152;28;20049;-79
2022/08/24 09:56:30;;;;;;;0.00;0.00;;;;;;;24.30;90.53;98346.06;4979135;28;20085;-82
2022/08/24 09:59:21;;;;;;;0.00;0.00;;;;;;;24.27;89.03;98346.38;4902504;29;20139;-80
2022/08/24 10:02:09;;;;;;;0.00;0.00;;;;;;;24.50;88.39;98335.66;4909573;29;20131;-80
2022/08/24 10:04:43;;;;;;;0.00;0.00;;;;;;;24.63;87.87;98333.25;4897298;29;20049;-79
2022/08/24 10:07:18;;;;;;;0.00;0.00;;;;;;;24.60;87.52;98338.97;4912986;29;20092;-82
2022/08/24 10:10:03;;;;;;;0.00;0.00;;;;;;;24.44;90.09;98344.47;4902806;29;20143;-79
2022/08/24 10:12:45;;;;;;;0.00;0.00;;;;;;;24.43;87.36;98334.69;4907505;29;20507;-80
2022/08/24 10:15:16;;;;;;;;;;;;;;;24.57;87.70;98339.31;4897843;29;20052;-79
2022/08/24 10:18:02;;;;;;;0.00;0.00;;;;;;;24.54;89.14;98332.44;4898493;29;20410;-80
2022/08/24 10:20:49;;;;;;;0.00;0.00;;;;;;;24.67;88.58;98337.25;4907214;29;20047;-80
2022/08/24 10:23:57;;;;;;;0.00;0.00;;;;;;;24.81;86.98;98337.28;4939591;29;20054;-80
2022/08/24 10:26:38;;;;;;;0.00;0.00;;;;;;;24.80;87.17;98330.22;4933214;29;20044;-79
2022/08/24 10:29:41;;;;;;;0.00;0.00;;;;;;;24.87;86.00;98333.03;4939957;28;20039;-81
2022/08/24 10:32:26;;;;;;;0.00;0.00;;;;;;;25.00;86.76;98333.31;4989452;28;20053;-81
2022/08/24 10:35:09;;;;;;;0.00;0.00;;;;;;;24.99;86.17;98343.22;5040979;28;20060;-79
2022/08/24 10:39:39;;;;;;;0.00;0.00;;;;;;;25.05;84.54;98333.59;5035803;28;20037;-80
2022/08/24 10:40:54;;;;;;;0.00;0.00;;;;;;;25.04;83.16;98327.38;5036150;28;20049;-80
2022/08/24 10:43:51;;;;;;;0.00;0.00;;;;;;;24.94;86.44;98342.09;5034158;28;20416;-80
2022/08/24 10:46:48;;;;;;;0.00;0.00;;;;;;;24.95;85.35;98328.47;5032727;28;20044;-81
2022/08/24 10:49:52;;;;;;;0.00;0.00;;;;;;;24.98;83.49;98330.78;5034651;28;20492;-80
2022/08/24 10:52:48;;;;;;;0.00;0.00;;;;;;;25.04;82.71;98326.53;5037520;28;20041;-79
2022/08/24 10:55:21;;;;;;;0.00;0.00;;;;;;;25.31;83.15;98331.31;5022970;28;20053;-79
2022/08/24 10:58:00;;;;;;;0.00;0.00;;;;;;;25.47;82.29;98329.28;5033449;28;20042;-81
2022/08/24 11:00:30;;;;;;;0.00;0.00;;;;;;;25.38;82.46;98326.88;5034789;28;20495;-80
2022/08/24 11:03:11;;;;;;;0.00;0.00;;;;;;;25.44;85.08;98323.44;5076567;28;20438;-79
2022/08/24 11:05:44;;;;;;;0.00;0.00;;;;;;;25.42;83.90;98329.00;5085671;28;20113;-79
2022/08/24 11:08:20;;;;;;;0.00;0.00;;;;;;;25.45;84.40;98331.34;5088700;28;20654;-80
2022/08/24 11:11:05;;;;;;;0.00;0.00;;;;;;;25.45;83.52;98327.81;5092129;28;20139;-82
2022/08/24 11:13:35;;;;;;;0.00;0.00;;;;;;;25.43;82.60;98325.28;5082537;28;20109;-80
2022/08/24 11:16:05;;;;;;;0.00;0.00;;;;;;;25.47;82.01;98331.97;5090325;28;20044;-82
2022/08/24 11:18:48;;;;;;;0.00;0.00;;;;;;;25.52;80.79;98332.28;5088277;28;20115;-79
2022/08/24 11:21:32;;;;;;;0.00;0.00;;;;;;;25.78;80.13;98334.53;5085180;28;20050;-79
2022/08/24 11:24:05;;;;;;;0.00;0.00;;;;;;;25.98;78.70;98324.88;5090243;28;20043;-79
2022/08/24 11:26:47;;;;;;;0.00;0.00;;;;;;;26.26;79.54;98329.41;5091723;28;20082;-79
2022/08/24 11:29:14;;;;;;;0.00;0.00;;;;;;;26.47;78.95;98332.09;5091293;28;20036;-79
2022/08/24 11:31:48;;;;;;;0.00;0.00;;;;;;;26.52;79.17;98323.44;5091949;28;20072;-80
2022/08/24 11:34:17;;;;;;;0.00;0.00;;;;;;;26.21;81.88;98321.00;5091950;28;20498;-79
2022/08/24 11:36:45;;;;;;;0.00;0.00;;;;;;;26.01;82.37;98317.22;5091827;28;20032;-80
2022/08/24 11:39:19;;;;;;;0.00;0.00;;;;;;;26.01;82.03;98319.06;5092053;28;20044;-81
2022/08/24 11:41:58;;;;;;;0.00;0.00;;;;;;;26.17;82.95;98317.03;5090255;28;20048;-79
2022/08/24 11:44:38;;;;;;;0.00;0.00;;;;;;;26.31;80.24;98329.66;5090349;28;20032;-80
2022/08/24 11:47:38;;;;;;;0.00;0.00;;;;;;;26.45;79.12;98328.78;5090159;28;20044;-80
2022/08/24 11:50:18;;;;;;;0.00;0.00;;;;;;;26.76;78.98;98324.97;5089046;28;20067;-80
2022/08/24 11:52:58;;;;;;;0.00;0.00;;;;;;;26.81;77.76;98333.31;5088157;28;20047;-79
2022/08/24 11:55:35;;;;;;;0.00;0.00;;;;;;;26.50;76.72;98334.44;5091690;28;20044;-81
2022/08/24 11:58:06;;;;;;;0.00;0.00;;;;;;;26.45;77.77;98328.78;5090871;28;20422;-79
2022/08/24 12:00:44;;;;;;;0.00;0.00;;;;;;;26.50;77.40;98334.44;5091204;28;20127;-79
2022/08/24 12:03:29;;;;;;;0.00;0.00;;;;;;;26.32;76.63;98336.72;5090602;28;20079;-80
2022/08/24 12:06:01;;;;;;;0.00;0.00;;;;;;;26.55;76.75;98340.09;5091620;28;20032;-79
2022/08/24 12:08:38;;;;;;;0.00;0.00;;;;;;;27.00;75.18;98332.69;5092261;28;20441;-80
2022/08/24 12:11:16;;;;;;;0.00;0.00;;;;;;;27.33;75.36;98333.81;5092067;28;20090;-79
2022/08/24 12:13:51;;;;;;;0.00;0.00;;;;;;;27.37;74.99;98329.69;5090107;28;20028;-79
2022/08/24 12:16:26;;;;;;;0.00;0.00;;;;;;;27.28;73.68;98334.38;5091513;28;20089;-79
2022/08/24 12:19:00;;;;;;;0.00;0.00;;;;;;;27.08;75.79;98340.63;5090773;28;20040;-79